Terminal Aerodrome Forecast
Issued by NWS St Louis, MO

Home | Current Version | Previous Version | Text Only | Print | Product List | Glossary On
Versions: 1 2 3 4 5 6 7 8 9 10 11 12 13 14 15 16 17 18 19 20 21 22 23 24 25 26
000
FTUS43 KLSX 250520
TAFCOU
TAF
KCOU 250520Z 2506/2606 13007KT 6SM -RA BR OVC070
     FM250700 13007KT 6SM BR BKN070
     FM251700 13007KT 6SM -RA VCTS OVC035CB
     FM252300 27008KT 5SM -RA BR VCTS OVC025CB
     FM260100 28007KT 5SM BR OVC010=

USA.gov is the U.S. government's official web portal to all federal, state and local government web resources and services.